MMTO/TLC METAR and TAF weather

Enter ICAO airport designator
Station Type Date Time Source
MMTO METAR 2024/04/17 17:42 UTC NOAA

MMTO 171742Z 07006KT 6SM FEW020 26/04 A3040 RMK SLP041 57007 955 8/100 HZY


Station Type Date Time Source
MMTO Decoded METAR 2024/04/17 17:42 UTC NOAA

Toluca / Jose Maria , Mexico (MMTO) 19-21N 099-34W
Apr 17, 2024 - 01:42 PM EDT / 2024.04.17 1742 UTC
Wind: from the ENE (070 degrees) at 7 MPH (6 KT):0
Visibility: 6 mile(s):0
Sky conditions: mostly clear
Temperature: 78 F (26 C)
Dew Point: 39 F (4 C)
Relative Humidity: 24%
Pressure (altimeter): 30.4 in. Hg (1029 hPa)
Pressure tendency: 0.02 inches (0.7 hPa) lower than three hours ago
ob: MMTO 171742Z 07006KT 6SM FEW020 26/04 A3040 RMK SLP041 57007 955 8/100 HZY
cycle: 17

Station Type Date Time Source
MMTO TAF 2024/04/17 18:09 UTC NOAA